CZSTPAJN

Guest
Details From CZST - STEWART
To PAJN - Juneau Intl
Flight Number -
Tags generated
Created
Modified
Stats Distance 223 nm / 413 km
Max Altitude 24,800 ft / 7,559 m
Waypoints 4
Social Downloads 6
Likes 0
Share

Download

Looking for another format? Having issues loading an existing format? Contact us
Advertisement - Login to hide

Notes

Basic altitude profile: - Ascent Rate: 2500ft/min - Ascent Speed: 250kts - Cruise Altitude: 16000ft - Cruise Speed: 420kts - Descent Rate: 1500ft/min - Descent Speed: 250kts Options: - Use NATs: yes - Use PACOTS: yes - Use low airways: yes - Use high airways: yes

Route

CZST FPN T266 CGL PAJN

ID Type Via Altitude (ft/m) Position (lat/lon) Dist (leg/tot) Name
O CZST APT - 0 / 0 55.93542 / -129.98403 - / 0 nm STEWART
FPN NDB - 24,800 / 7,559 56.79225 / -132.82097 107 / 107 nm FREDERICKS POINT NDB
CGL NDB T266 (AWY-LO) 7,000 / 2,134 58.35933 / -134.69944 111 / 219 nm COGHLAN ISLAND NDB
O PAJN APT - 0 / 0 58.35496 / -134.57628 3 / 223 nm Juneau Intl

Altitude Profile

Advertisement - Login to hide

Weather


0- 5 10 15 20 25 30 35+ Temperature / °C

Clouds and Precipitation
Forecast for 2020-10-27 00:00 UTC. Updated 4 hours ago

Ground ~20,000 ft ~40,000 ft Winds

CZST

Details ICAO CZST (ZST)
Name STEWART
Region Canada
Timezone America/Vancouver (UTC-7.0)
Stats Elevation 24 ft / 7 m (AMSL)
Location 55.935400° -129.984000°
Runways 1
Magnetic Variation 17.988° E

METAR

CZST 270100Z 00000KT 3SM RA BR FEW010 SCT035 OVC060 01/01 A2998 RMK SC2SC2SC4 LAST STFD OBS/NEXT 271300Z/ SLP152

Decode

TAF

Not found

Departure Runways

ID Width Length Bearing (true/mag) Surface Threshold Overrun Markings Lighting
18 75 ft / 23 m 3,873 ft / 1,180 m 194.43° / 176.44° ASPHALT 0 ft / 0 m 0 ft / 0 m APP
36 75 ft / 23 m 3,873 ft / 1,180 m 14.42° / 356.43° ASPHALT 0 ft / 0 m 0 ft / 0 m APP

PAJN

Details ICAO PAJN (JNU)
Name Juneau Intl
Region USA (Alaska)
Timezone America/Juneau (UTC-8.0)
Stats Elevation 20 ft / 6 m (AMSL)
Location 58.355000° -134.576000°
Runways 1
Magnetic Variation 18.312° E

METAR

PAJN 270053Z 00000KT 10SM BKN039 BKN050 09/07 A2980

Decode

TAF

PAJN 262336Z 2700/2724 30008G18KT 6SM -RA BR FEW015 BKN030 OVC050 WS020/17035KT FM270300 10011KT P6SM -SHRA OVC045 WS020/24025KT FM271200 09008KT P6SM -SHRA BKN025 OVC040

Decode

Destination Runways

ID Width Length Bearing (true/mag) Surface Threshold Overrun Markings Lighting
08 151 ft / 46 m 8,867 ft / 2,703 m 104.87° / 86.55° ASPHALT 220 ft / 67 m 0 ft / 0 m APP CENTERLINE EDGE THRESHOLD MALSF
26 151 ft / 46 m 8,867 ft / 2,703 m 284.90° / 266.59° ASPHALT 217 ft / 66 m 0 ft / 0 m APP CENTERLINE EDGE THRESHOLD MALS

Approach Navaids

Runway Type Ident Frequency Range Bearing (true/mag) Slope Elevation
08 DME IJDL 109.90 MHz 18 nm / 33 km - - 175 ft / 53 m (AMSL)
08 LOC-LOC IJDL 109.90 MHz 18 nm / 33 km 84.92° / 66.61 ° - 21 ft / 6 m (AMSL)

Popular Alternatives